sensor_id;sensor_type;location;lat;lon;timestamp;pressure;altitude;pressure_sealevel;temperature
18713;BMP280;9485;49.386;8.674;2024-02-23T00:03:05;98340.09;;;10.90
18713;BMP280;9485;49.386;8.674;2024-02-23T00:08:29;98350.72;;;10.84
18713;BMP280;9485;49.386;8.674;2024-02-23T00:13:49;98354.44;;;10.79
18713;BMP280;9485;49.386;8.674;2024-02-23T00:19:10;98375.66;;;10.73
18713;BMP280;9485;49.386;8.674;2024-02-23T00:24:32;98382.47;;;10.64
18713;BMP280;9485;49.386;8.674;2024-02-23T00:29:53;98354.16;;;10.57
18713;BMP280;9485;49.386;8.674;2024-02-23T00:35:14;98370.00;;;10.60
18713;BMP280;9485;49.386;8.674;2024-02-23T00:40:36;98404.06;;;10.62
18713;BMP280;9485;49.386;8.674;2024-02-23T00:45:57;98425.03;;;10.66
18713;BMP280;9485;49.386;8.674;2024-02-23T00:51:18;98406.25;;;10.56
18713;BMP280;9485;49.386;8.674;2024-02-23T00:56:40;98411.13;;;10.43
18713;BMP280;9485;49.386;8.674;2024-02-23T01:02:01;98404.97;;;10.31
18713;BMP280;9485;49.386;8.674;2024-02-23T01:07:21;98427.63;;;10.26
18713;BMP280;9485;49.386;8.674;2024-02-23T01:12:43;98432.81;;;10.22
18713;BMP280;9485;49.386;8.674;2024-02-23T01:18:04;98440.19;;;10.12
18713;BMP280;9485;49.386;8.674;2024-02-23T01:23:27;98426.94;;;10.07
18713;BMP280;9485;49.386;8.674;2024-02-23T01:28:48;98431.25;;;9.95
18713;BMP280;9485;49.386;8.674;2024-02-23T01:34:09;98437.41;;;9.80
18713;BMP280;9485;49.386;8.674;2024-02-23T01:39:30;98446.34;;;9.66
18713;BMP280;9485;49.386;8.674;2024-02-23T01:44:52;98462.41;;;9.71
18713;BMP280;9485;49.386;8.674;2024-02-23T01:50:15;98464.72;;;9.85
18713;BMP280;9485;49.386;8.674;2024-02-23T01:55:36;98478.25;;;9.87
18713;BMP280;9485;49.386;8.674;2024-02-23T02:00:59;98483.81;;;9.92
18713;BMP280;9485;49.386;8.674;2024-02-23T02:06:19;98513.22;;;9.97
18713;BMP280;9485;49.386;8.674;2024-02-23T02:11:46;98516.31;;;9.99
18713;BMP280;9485;49.386;8.674;2024-02-23T02:17:08;98528.56;;;9.83
18713;BMP280;9485;49.386;8.674;2024-02-23T02:22:28;98530.56;;;9.69
18713;BMP280;9485;49.386;8.674;2024-02-23T02:27:49;98542.97;;;9.61
18713;BMP280;9485;49.386;8.674;2024-02-23T02:33:11;98537.50;;;9.50
18713;BMP280;9485;49.386;8.674;2024-02-23T02:38:32;98548.06;;;9.44
18713;BMP280;9485;49.386;8.674;2024-02-23T02:43:53;98551.19;;;9.41
18713;BMP280;9485;49.386;8.674;2024-02-23T02:49:15;98530.81;;;9.35
18713;BMP280;9485;49.386;8.674;2024-02-23T02:54:35;98533.09;;;9.36
18713;BMP280;9485;49.386;8.674;2024-02-23T02:59:56;98526.16;;;9.37
18713;BMP280;9485;49.386;8.674;2024-02-23T03:05:18;98533.72;;;9.29
18713;BMP280;9485;49.386;8.674;2024-02-23T03:10:38;98533.25;;;9.25
18713;BMP280;9485;49.386;8.674;2024-02-23T03:15:59;98531.19;;;9.07
18713;BMP280;9485;49.386;8.674;2024-02-23T03:21:21;98527.69;;;9.01
18713;BMP280;9485;49.386;8.674;2024-02-23T03:26:41;98533.22;;;9.07
18713;BMP280;9485;49.386;8.674;2024-02-23T03:32:03;98533.41;;;9.14
18713;BMP280;9485;49.386;8.674;2024-02-23T03:37:24;98517.31;;;9.09
18713;BMP280;9485;49.386;8.674;2024-02-23T03:42:45;98535.59;;;9.21
18713;BMP280;9485;49.386;8.674;2024-02-23T03:48:07;98523.94;;;9.30
18713;BMP280;9485;49.386;8.674;2024-02-23T03:53:29;98520.53;;;9.37
18713;BMP280;9485;49.386;8.674;2024-02-23T03:58:50;98524.03;;;9.43
18713;BMP280;9485;49.386;8.674;2024-02-23T04:04:10;98538.88;;;9.44
18713;BMP280;9485;49.386;8.674;2024-02-23T04:09:32;98541.16;;;9.45
18713;BMP280;9485;49.386;8.674;2024-02-23T04:14:52;98555.47;;;9.47
18713;BMP280;9485;49.386;8.674;2024-02-23T04:20:13;98564.97;;;9.44
18713;BMP280;9485;49.386;8.674;2024-02-23T04:25:35;98587.66;;;9.33
18713;BMP280;9485;49.386;8.674;2024-02-23T04:30:55;98583.03;;;9.36
18713;BMP280;9485;49.386;8.674;2024-02-23T04:36:19;98581.19;;;9.38
18713;BMP280;9485;49.386;8.674;2024-02-23T04:41:41;98582.72;;;9.39
18713;BMP280;9485;49.386;8.674;2024-02-23T04:47:01;98594.16;;;9.47
18713;BMP280;9485;49.386;8.674;2024-02-23T04:52:22;98574.75;;;9.43
18713;BMP280;9485;49.386;8.674;2024-02-23T04:57:44;98574.81;;;9.38
18713;BMP280;9485;49.386;8.674;2024-02-23T05:03:06;98570.09;;;9.27
18713;BMP280;9485;49.386;8.674;2024-02-23T05:08:26;98581.41;;;9.22
18713;BMP280;9485;49.386;8.674;2024-02-23T05:13:50;98582.84;;;9.10
18713;BMP280;9485;49.386;8.674;2024-02-23T05:19:11;98584.38;;;9.11
18713;BMP280;9485;49.386;8.674;2024-02-23T05:24:32;98599.63;;;8.97
18713;BMP280;9485;49.386;8.674;2024-02-23T05:29:53;98599.16;;;8.93
18713;BMP280;9485;49.386;8.674;2024-02-23T05:35:14;98612.22;;;8.91
18713;BMP280;9485;49.386;8.674;2024-02-23T05:40:34;98615.81;;;8.91
18713;BMP280;9485;49.386;8.674;2024-02-23T05:45:57;98623.53;;;8.85
18713;BMP280;9485;49.386;8.674;2024-02-23T05:51:17;98621.25;;;8.84
18713;BMP280;9485;49.386;8.674;2024-02-23T05:56:38;98632.50;;;8.84
18713;BMP280;9485;49.386;8.674;2024-02-23T06:02:00;98631.75;;;8.83
18713;BMP280;9485;49.386;8.674;2024-02-23T06:07:24;98637.56;;;8.91
18713;BMP280;9485;49.386;8.674;2024-02-23T06:12:47;98630.19;;;8.88
18713;BMP280;9485;49.386;8.674;2024-02-23T06:18:09;98641.25;;;8.80
18713;BMP280;9485;49.386;8.674;2024-02-23T06:23:29;98640.56;;;8.69
18713;BMP280;9485;49.386;8.674;2024-02-23T06:28:50;98647.59;;;8.57
18713;BMP280;9485;49.386;8.674;2024-02-23T06:34:12;98640.56;;;8.45
18713;BMP280;9485;49.386;8.674;2024-02-23T06:39:32;98645.50;;;8.33
18713;BMP280;9485;49.386;8.674;2024-02-23T06:44:52;98642.72;;;8.28
18713;BMP280;9485;49.386;8.674;2024-02-23T06:50:15;98632.28;;;8.23
18713;BMP280;9485;49.386;8.674;2024-02-23T06:55:36;98627.69;;;8.20
18713;BMP280;9485;49.386;8.674;2024-02-23T07:00:56;98631.81;;;8.14
18713;BMP280;9485;49.386;8.674;2024-02-23T07:06:18;98635.66;;;8.11
18713;BMP280;9485;49.386;8.674;2024-02-23T07:11:39;98643.84;;;8.09
18713;BMP280;9485;49.386;8.674;2024-02-23T07:17:03;98643.09;;;8.08
18713;BMP280;9485;49.386;8.674;2024-02-23T07:22:25;98648.19;;;8.10
18713;BMP280;9485;49.386;8.674;2024-02-23T07:27:45;98650.72;;;8.13
18713;BMP280;9485;49.386;8.674;2024-02-23T07:33:08;98663.09;;;8.39
18713;BMP280;9485;49.386;8.674;2024-02-23T07:38:30;98667.31;;;8.51
18713;BMP280;9485;49.386;8.674;2024-02-23T07:43:51;98665.06;;;8.50
18713;BMP280;9485;49.386;8.674;2024-02-23T07:49:12;98668.97;;;8.41
18713;BMP280;9485;49.386;8.674;2024-02-23T07:54:34;98686.34;;;8.40
18713;BMP280;9485;49.386;8.674;2024-02-23T07:59:55;98680.34;;;8.54
18713;BMP280;9485;49.386;8.674;2024-02-23T08:05:15;98689.28;;;9.11
18713;BMP280;9485;49.386;8.674;2024-02-23T08:10:38;98672.59;;;9.61
18713;BMP280;9485;49.386;8.674;2024-02-23T08:15:58;98677.50;;;10.16
18713;BMP280;9485;49.386;8.674;2024-02-23T08:21:18;98676.06;;;10.90
18713;BMP280;9485;49.386;8.674;2024-02-23T08:26:40;98686.47;;;10.95
18713;BMP280;9485;49.386;8.674;2024-02-23T08:32:02;98675.44;;;11.49
18713;BMP280;9485;49.386;8.674;2024-02-23T08:37:22;98679.84;;;12.09
18713;BMP280;9485;49.386;8.674;2024-02-23T08:42:44;98668.28;;;11.87
18713;BMP280;9485;49.386;8.674;2024-02-23T08:48:06;98649.78;;;13.48
18713;BMP280;9485;49.386;8.674;2024-02-23T08:53:27;98646.09;;;14.69
18713;BMP280;9485;49.386;8.674;2024-02-23T08:58:49;98643.28;;;15.21
18713;BMP280;9485;49.386;8.674;2024-02-23T09:04:10;98633.53;;;14.20
18713;BMP280;9485;49.386;8.674;2024-02-23T09:09:30;98646.41;;;14.28
18713;BMP280;9485;49.386;8.674;2024-02-23T09:14:52;98641.47;;;15.85
18713;BMP280;9485;49.386;8.674;2024-02-23T09:20:13;98639.28;;;15.01
18713;BMP280;9485;49.386;8.674;2024-02-23T09:25:34;98637.88;;;14.21
18713;BMP280;9485;49.386;8.674;2024-02-23T09:30:56;98636.47;;;15.09
18713;BMP280;9485;49.386;8.674;2024-02-23T09:36:17;98611.31;;;18.80
18713;BMP280;9485;49.386;8.674;2024-02-23T09:41:39;98630.75;;;21.17
18713;BMP280;9485;49.386;8.674;2024-02-23T09:47:02;98628.59;;;20.10
18713;BMP280;9485;49.386;8.674;2024-02-23T09:52:29;98644.56;;;19.75
18713;BMP280;9485;49.386;8.674;2024-02-23T09:57:52;98644.75;;;20.15
18713;BMP280;9485;49.386;8.674;2024-02-23T10:03:17;98642.19;;;21.57
18713;BMP280;9485;49.386;8.674;2024-02-23T10:08:38;98637.63;;;21.33
18713;BMP280;9485;49.386;8.674;2024-02-23T10:13:59;98643.63;;;22.09
18713;BMP280;9485;49.386;8.674;2024-02-23T10:19:20;98654.31;;;21.97
18713;BMP280;9485;49.386;8.674;2024-02-23T10:24:42;98652.47;;;22.02
18713;BMP280;9485;49.386;8.674;2024-02-23T10:30:04;98672.81;;;21.04
18713;BMP280;9485;49.386;8.674;2024-02-23T10:35:30;98667.06;;;20.07
18713;BMP280;9485;49.386;8.674;2024-02-23T10:40:55;98658.75;;;19.83
18713;BMP280;9485;49.386;8.674;2024-02-23T10:46:19;98664.50;;;20.21
18713;BMP280;9485;49.386;8.674;2024-02-23T10:51:42;98655.59;;;19.24
18713;BMP280;9485;49.386;8.674;2024-02-23T10:57:04;98651.72;;;18.67
18713;BMP280;9485;49.386;8.674;2024-02-23T11:02:28;98647.63;;;17.50
18713;BMP280;9485;49.386;8.674;2024-02-23T11:07:51;98647.69;;;16.69
18713;BMP280;9485;49.386;8.674;2024-02-23T11:13:16;98638.44;;;15.76
18713;BMP280;9485;49.386;8.674;2024-02-23T11:18:39;98631.16;;;14.91
18713;BMP280;9485;49.386;8.674;2024-02-23T11:24:05;98629.63;;;14.45
18713;BMP280;9485;49.386;8.674;2024-02-23T11:29:27;98631.56;;;14.07
18713;BMP280;9485;49.386;8.674;2024-02-23T11:34:55;98611.19;;;14.16
18713;BMP280;9485;49.386;8.674;2024-02-23T11:40:19;98606.66;;;14.35
18713;BMP280;9485;49.386;8.674;2024-02-23T11:45:41;98603.47;;;13.81
18713;BMP280;9485;49.386;8.674;2024-02-23T11:51:01;98620.56;;;13.26
18713;BMP280;9485;49.386;8.674;2024-02-23T11:56:25;98612.22;;;12.92
18713;BMP280;9485;49.386;8.674;2024-02-23T12:01:46;98609.34;;;12.72
18713;BMP280;9485;49.386;8.674;2024-02-23T12:07:07;98599.75;;;12.75
18713;BMP280;9485;49.386;8.674;2024-02-23T12:12:30;98600.41;;;12.61
18713;BMP280;9485;49.386;8.674;2024-02-23T12:17:51;98604.47;;;12.52
18713;BMP280;9485;49.386;8.674;2024-02-23T12:23:12;98598.63;;;12.50
18713;BMP280;9485;49.386;8.674;2024-02-23T12:28:34;98596.53;;;12.51
18713;BMP280;9485;49.386;8.674;2024-02-23T12:33:57;98598.75;;;12.45
18713;BMP280;9485;49.386;8.674;2024-02-23T12:39:18;98593.00;;;12.37
18713;BMP280;9485;49.386;8.674;2024-02-23T12:44:40;98606.34;;;12.29
18713;BMP280;9485;49.386;8.674;2024-02-23T12:50:00;98597.00;;;12.42
18713;BMP280;9485;49.386;8.674;2024-02-23T12:55:21;98601.44;;;12.50
18713;BMP280;9485;49.386;8.674;2024-02-23T13:00:43;98609.53;;;12.67
18713;BMP280;9485;49.386;8.674;2024-02-23T13:06:04;98585.53;;;12.88
18713;BMP280;9485;49.386;8.674;2024-02-23T13:11:25;98579.03;;;13.71
18713;BMP280;9485;49.386;8.674;2024-02-23T13:16:47;98581.22;;;14.08
18713;BMP280;9485;49.386;8.674;2024-02-23T13:22:08;98586.28;;;13.87
18713;BMP280;9485;49.386;8.674;2024-02-23T13:27:29;98589.66;;;13.43
18713;BMP280;9485;49.386;8.674;2024-02-23T13:32:52;98588.94;;;13.14
18713;BMP280;9485;49.386;8.674;2024-02-23T13:38:13;98573.16;;;13.26
18713;BMP280;9485;49.386;8.674;2024-02-23T13:43:34;98580.47;;;13.22
18713;BMP280;9485;49.386;8.674;2024-02-23T13:49:05;98567.13;;;13.02
18713;BMP280;9485;49.386;8.674;2024-02-23T13:54:26;98573.38;;;13.00
18713;BMP280;9485;49.386;8.674;2024-02-23T13:59:46;98563.22;;;13.05
18713;BMP280;9485;49.386;8.674;2024-02-23T14:05:08;98555.63;;;13.35
18713;BMP280;9485;49.386;8.674;2024-02-23T14:10:29;98547.50;;;13.32
18713;BMP280;9485;49.386;8.674;2024-02-23T14:15:50;98526.41;;;13.12
18713;BMP280;9485;49.386;8.674;2024-02-23T14:21:12;98532.75;;;12.98
18713;BMP280;9485;49.386;8.674;2024-02-23T14:26:34;98521.66;;;12.79
18713;BMP280;9485;49.386;8.674;2024-02-23T14:31:54;98506.81;;;12.66
18713;BMP280;9485;49.386;8.674;2024-02-23T14:37:17;98510.13;;;12.77
18713;BMP280;9485;49.386;8.674;2024-02-23T14:42:37;98515.84;;;12.85
18713;BMP280;9485;49.386;8.674;2024-02-23T14:47:58;98510.72;;;12.83
18713;BMP280;9485;49.386;8.674;2024-02-23T14:53:21;98510.72;;;12.83
18713;BMP280;9485;49.386;8.674;2024-02-23T14:58:41;98505.16;;;12.98
18713;BMP280;9485;49.386;8.674;2024-02-23T15:04:02;98516.88;;;12.95
18713;BMP280;9485;49.386;8.674;2024-02-23T15:09:24;98519.09;;;12.89
18713;BMP280;9485;49.386;8.674;2024-02-23T15:14:45;98517.56;;;12.88
18713;BMP280;9485;49.386;8.674;2024-02-23T15:20:07;98520.47;;;12.75
18713;BMP280;9485;49.386;8.674;2024-02-23T15:25:29;98523.81;;;12.66
18713;BMP280;9485;49.386;8.674;2024-02-23T15:30:50;98509.75;;;12.53
18713;BMP280;9485;49.386;8.674;2024-02-23T15:36:10;98502.03;;;12.54
18713;BMP280;9485;49.386;8.674;2024-02-23T15:41:32;98498.44;;;12.53
18713;BMP280;9485;49.386;8.674;2024-02-23T15:46:53;98500.25;;;12.43
18713;BMP280;9485;49.386;8.674;2024-02-23T15:52:14;98496.41;;;12.33
18713;BMP280;9485;49.386;8.674;2024-02-23T15:57:36;98492.25;;;12.34
18713;BMP280;9485;49.386;8.674;2024-02-23T16:02:56;98499.44;;;12.35
18713;BMP280;9485;49.386;8.674;2024-02-23T16:08:17;98500.75;;;12.14
18713;BMP280;9485;49.386;8.674;2024-02-23T16:13:39;98506.47;;;12.01
18713;BMP280;9485;49.386;8.674;2024-02-23T16:19:00;98496.41;;;11.93
18713;BMP280;9485;49.386;8.674;2024-02-23T16:24:20;98496.47;;;11.80
18713;BMP280;9485;49.386;8.674;2024-02-23T16:29:42;98501.84;;;11.70
18713;BMP280;9485;49.386;8.674;2024-02-23T16:35:04;98496.44;;;11.59
18713;BMP280;9485;49.386;8.674;2024-02-23T16:40:25;98501.31;;;11.13
18713;BMP280;9485;49.386;8.674;2024-02-23T16:45:49;98498.84;;;10.96
18713;BMP280;9485;49.386;8.674;2024-02-23T16:51:10;98493.94;;;10.97
18713;BMP280;9485;49.386;8.674;2024-02-23T16:56:30;98498.69;;;11.02
18713;BMP280;9485;49.386;8.674;2024-02-23T17:01:52;98502.06;;;11.00
18713;BMP280;9485;49.386;8.674;2024-02-23T17:07:13;98492.63;;;10.98
18713;BMP280;9485;49.386;8.674;2024-02-23T17:12:34;98493.94;;;10.97
18713;BMP280;9485;49.386;8.674;2024-02-23T17:17:56;98490.69;;;10.93
18713;BMP280;9485;49.386;8.674;2024-02-23T17:23:17;98489.59;;;10.83
18713;BMP280;9485;49.386;8.674;2024-02-23T17:28:37;98492.00;;;10.79
18713;BMP280;9485;49.386;8.674;2024-02-23T17:34:01;98501.44;;;10.68
18713;BMP280;9485;49.386;8.674;2024-02-23T17:39:22;98504.78;;;10.54
18713;BMP280;9485;49.386;8.674;2024-02-23T17:44:43;98508.81;;;10.46
18713;BMP280;9485;49.386;8.674;2024-02-23T17:50:07;98512.03;;;10.37
18713;BMP280;9485;49.386;8.674;2024-02-23T17:55:28;98523.97;;;10.30
18713;BMP280;9485;49.386;8.674;2024-02-23T18:00:49;98521.56;;;10.21
18713;BMP280;9485;49.386;8.674;2024-02-23T18:06:12;98517.22;;;10.20
18713;BMP280;9485;49.386;8.674;2024-02-23T18:11:33;98526.53;;;10.15
18713;BMP280;9485;49.386;8.674;2024-02-23T18:16:57;98536.38;;;10.08
18713;BMP280;9485;49.386;8.674;2024-02-23T18:22:19;98546.69;;;10.06
18713;BMP280;9485;49.386;8.674;2024-02-23T18:27:40;98545.25;;;9.99
18713;BMP280;9485;49.386;8.674;2024-02-23T18:33:00;98545.09;;;9.92
18713;BMP280;9485;49.386;8.674;2024-02-23T18:38:22;98541.13;;;9.82
18713;BMP280;9485;49.386;8.674;2024-02-23T18:43:43;98536.34;;;9.77
18713;BMP280;9485;49.386;8.674;2024-02-23T18:49:03;98548.91;;;9.76
18713;BMP280;9485;49.386;8.674;2024-02-23T18:54:26;98550.44;;;9.77
18713;BMP280;9485;49.386;8.674;2024-02-23T18:59:47;98562.38;;;9.83
18713;BMP280;9485;49.386;8.674;2024-02-23T19:05:08;98562.81;;;9.87
18713;BMP280;9485;49.386;8.674;2024-02-23T19:10:30;98548.41;;;9.90
18713;BMP280;9485;49.386;8.674;2024-02-23T19:15:51;98556.28;;;9.97
18713;BMP280;9485;49.386;8.674;2024-02-23T19:21:11;98547.59;;;9.95
18713;BMP280;9485;49.386;8.674;2024-02-23T19:26:33;98541.78;;;9.88
18713;BMP280;9485;49.386;8.674;2024-02-23T19:31:54;98539.06;;;9.82
18713;BMP280;9485;49.386;8.674;2024-02-23T19:37:14;98539.59;;;9.81
18713;BMP280;9485;49.386;8.674;2024-02-23T19:42:37;98532.00;;;9.76
18713;BMP280;9485;49.386;8.674;2024-02-23T19:47:58;98540.75;;;9.72
18713;BMP280;9485;49.386;8.674;2024-02-23T19:53:18;98532.06;;;9.70
18713;BMP280;9485;49.386;8.674;2024-02-23T19:58:40;98532.38;;;9.67
18713;BMP280;9485;49.386;8.674;2024-02-23T20:04:01;98534.22;;;9.65
18713;BMP280;9485;49.386;8.674;2024-02-23T20:09:22;98549.66;;;9.58
18713;BMP280;9485;49.386;8.674;2024-02-23T20:14:44;98545.88;;;9.56
18713;BMP280;9485;49.386;8.674;2024-02-23T20:20:07;98538.50;;;9.53
18713;BMP280;9485;49.386;8.674;2024-02-23T20:25:28;98543.66;;;9.49
18713;BMP280;9485;49.386;8.674;2024-02-23T20:30:49;98539.41;;;9.42
18713;BMP280;9485;49.386;8.674;2024-02-23T20:36:11;98540.03;;;9.35
18713;BMP280;9485;49.386;8.674;2024-02-23T20:41:32;98535.22;;;9.30
18713;BMP280;9485;49.386;8.674;2024-02-23T20:46:54;98535.50;;;9.27
18713;BMP280;9485;49.386;8.674;2024-02-23T20:52:15;98536.84;;;9.26
18713;BMP280;9485;49.386;8.674;2024-02-23T20:57:36;98537.34;;;9.24
18713;BMP280;9485;49.386;8.674;2024-02-23T21:02:57;98546.56;;;9.25
18713;BMP280;9485;49.386;8.674;2024-02-23T21:08:19;98539.66;;;9.26
18713;BMP280;9485;49.386;8.674;2024-02-23T21:13:40;98551.97;;;9.23
18713;BMP280;9485;49.386;8.674;2024-02-23T21:19:02;98543.28;;;9.21
18713;BMP280;9485;49.386;8.674;2024-02-23T21:24:22;98548.91;;;9.21
18713;BMP280;9485;49.386;8.674;2024-02-23T21:29:43;98541.53;;;9.18
18713;BMP280;9485;49.386;8.674;2024-02-23T21:35:06;98540.56;;;9.15
18713;BMP280;9485;49.386;8.674;2024-02-23T21:40:26;98545.69;;;9.11
18713;BMP280;9485;49.386;8.674;2024-02-23T21:45:47;98553.16;;;9.09
18713;BMP280;9485;49.386;8.674;2024-02-23T21:51:09;98557.81;;;9.06
18713;BMP280;9485;49.386;8.674;2024-02-23T21:56:30;98555.81;;;9.01
18713;BMP280;9485;49.386;8.674;2024-02-23T22:01:50;98558.16;;;8.97
18713;BMP280;9485;49.386;8.674;2024-02-23T22:07:12;98559.22;;;8.95
18713;BMP280;9485;49.386;8.674;2024-02-23T22:12:33;98561.22;;;8.99
18713;BMP280;9485;49.386;8.674;2024-02-23T22:17:53;98560.91;;;9.03
18713;BMP280;9485;49.386;8.674;2024-02-23T22:23:15;98566.53;;;9.03
18713;BMP280;9485;49.386;8.674;2024-02-23T22:28:36;98560.13;;;9.02
18713;BMP280;9485;49.386;8.674;2024-02-23T22:33:56;98564.56;;;8.98
18713;BMP280;9485;49.386;8.674;2024-02-23T22:39:19;98566.38;;;8.95
18713;BMP280;9485;49.386;8.674;2024-02-23T22:44:39;98567.88;;;8.96
18713;BMP280;9485;49.386;8.674;2024-02-23T22:50:00;98573.75;;;8.98
18713;BMP280;9485;49.386;8.674;2024-02-23T22:55:22;98579.97;;;9.15
18713;BMP280;9485;49.386;8.674;2024-02-23T23:00:42;98570.84;;;9.28
18713;BMP280;9485;49.386;8.674;2024-02-23T23:06:04;98592.75;;;9.35
18713;BMP280;9485;49.386;8.674;2024-02-23T23:11:27;98606.94;;;9.29
18713;BMP280;9485;49.386;8.674;2024-02-23T23:16:48;98603.53;;;9.12
18713;BMP280;9485;49.386;8.674;2024-02-23T23:22:09;98608.72;;;9.08
18713;BMP280;9485;49.386;8.674;2024-02-23T23:27:31;98601.56;;;9.07
18713;BMP280;9485;49.386;8.674;2024-02-23T23:32:52;98597.75;;;9.05
18713;BMP280;9485;49.386;8.674;2024-02-23T23:38:13;98597.56;;;8.97
18713;BMP280;9485;49.386;8.674;2024-02-23T23:43:35;98597.91;;;8.89
18713;BMP280;9485;49.386;8.674;2024-02-23T23:48:55;98621.78;;;8.82
18713;BMP280;9485;49.386;8.674;2024-02-23T23:54:16;98622.91;;;8.74
18713;BMP280;9485;49.386;8.674;2024-02-23T23:59:38;98622.47;;;8.64
